Crabtree, Oregon
Current Conditions -  °F | °C
As of 1:56 AM on Sunday 26 Oct 2014 (Local Time) from KSLE Reporting Station
Broken Clouds Broken Clouds  
Wind Chill: 50°   Ceiling: 8000
Heat Index: 50°   Visibility: 10mi
Dew Point: 46°   Wind: 9mph
Humidity: 86%   Direction: 180°S
Pressure: 29.98"   Gusts: NA
Location:  44.63°N, 122.9°W
Report Text: KSLE 260856Z AUTO 18008KT 10SM SCT060 BKN080 BKN100 10/08 A2998 RMK AO2 RAB14E45 SLP153 P0001 60003 T01000078 51022
Loading
Personal Weather Stations






























Interactive Weather Map
Tropical Storm Tracking
New forecast layout! Learn more

10-Day Weather Forecast

Advertisements
Track Severe Weather on mobile